Time,TemperatureF,DewpointF,PressureIn,WindDirection,WindDirectionDegrees,WindSpeedMPH,WindSpeedGustMPH,Humidity,HourlyPrecipIn,Conditions,Clouds,dailyrainin,SolarRadiationWatts/m^2,SoftwareType,DateUTC
2013-05-23 00:02:00,62.0,62.0,-100.00,North,0,2.0,6.0,99,0.00,,,0.00,0.000000,,2013-05-23 10:02:00,
2013-05-23 00:12:00,62.0,62.0,-100.00,North,0,2.0,6.0,99,0.00,,,0.00,0.000000,,2013-05-23 10:12:00,
2013-05-23 00:22:00,62.0,62.0,-100.00,North,0,2.0,6.0,99,0.00,,,0.00,0.000000,,2013-05-23 10:22:00,
2013-05-23 00:42:00,62.0,62.0,-100.00,North,4,2.0,7.0,100,0.00,,,0.00,0.000000,,2013-05-23 10:42:00,
2013-05-23 00:52:00,62.0,62.0,-100.00,North,4,2.0,7.0,100,0.00,,,0.00,0.000000,,2013-05-23 10:52:00,
2013-05-23 01:02:00,62.0,62.0,-100.00,North,4,2.0,7.0,100,0.00,,,0.00,0.000000,,2013-05-23 11:02:00,
2013-05-23 01:11:00,62.0,62.0,-100.00,North,4,2.0,7.0,100,0.00,,,0.00,0.000000,,2013-05-23 11:11:00,
2013-05-23 01:21:00,62.0,62.0,-100.00,North,4,2.0,7.0,100,0.00,,,0.00,0.000000,,2013-05-23 11:21:00,
2013-05-23 01:42:00,62.0,60.0,-100.00,NNW,342,2.0,8.0,93,0.00,,,0.00,0.000000,,2013-05-23 11:42:00,
2013-05-23 01:52:00,62.0,60.0,-100.00,NNW,342,2.0,8.0,93,0.00,,,0.00,0.000000,,2013-05-23 11:52:00,
2013-05-23 02:01:00,62.0,60.0,-100.00,NNW,342,2.0,8.0,93,0.00,,,0.00,0.000000,,2013-05-23 12:01:00,
2013-05-23 02:11:00,62.0,60.0,-100.00,NNW,342,2.0,8.0,93,0.00,,,0.00,0.000000,,2013-05-23 12:11:00,
2013-05-23 02:21:00,62.0,60.0,-100.00,NNW,342,2.0,8.0,93,0.00,,,0.00,0.000000,,2013-05-23 12:21:00,
2013-05-23 02:42:00,62.0,62.0,-100.00,North,351,1.0,5.0,100,0.00,,,0.00,0.000000,,2013-05-23 12:42:00,
2013-05-23 02:52:00,62.0,62.0,-100.00,North,351,1.0,5.0,100,0.00,,,0.00,0.000000,,2013-05-23 12:52:00,
2013-05-23 03:01:00,62.0,62.0,-100.00,North,351,1.0,5.0,100,0.00,,,0.00,0.000000,,2013-05-23 13:01:00,
2013-05-23 03:11:00,62.0,62.0,-100.00,North,351,1.0,5.0,100,0.00,,,0.00,0.000000,,2013-05-23 13:11:00,
2013-05-23 03:21:00,62.0,62.0,-100.00,North,351,1.0,5.0,100,0.00,,,0.00,0.000000,,2013-05-23 13:21:00,
2013-05-23 03:42:00,61.0,-99.9,-100.00,NE,35,1.0,3.0,-999,0.00,,,0.00,0.000000,,2013-05-23 13:42:00,
2013-05-23 03:52:00,61.0,-99.9,-100.00,NE,35,1.0,3.0,-999,0.00,,,0.00,0.000000,,2013-05-23 13:52:00,
2013-05-23 04:02:00,61.0,-99.9,-100.00,NE,35,1.0,3.0,-999,0.00,,,0.00,0.000000,,2013-05-23 14:02:00,
2013-05-23 04:11:00,61.0,-99.9,-100.00,NE,35,1.0,3.0,-999,0.00,,,0.00,0.000000,,2013-05-23 14:11:00,
2013-05-23 04:22:00,61.0,-99.9,-100.00,NE,35,1.0,3.0,-999,0.00,,,0.00,0.000000,,2013-05-23 14:22:00,
2013-05-23 04:42:00,61.0,61.0,-100.00,North,10,2.0,5.0,100,0.00,,,0.00,0.000000,,2013-05-23 14:42:00,
2013-05-23 04:52:00,61.0,61.0,-100.00,North,10,2.0,5.0,100,0.00,,,0.00,0.000000,,2013-05-23 14:52:00,
2013-05-23 05:01:00,61.0,61.0,-100.00,North,10,2.0,5.0,100,0.00,,,0.00,0.000000,,2013-05-23 15:01:00,
2013-05-23 05:11:00,61.0,61.0,-100.00,North,10,2.0,5.0,100,0.00,,,0.00,0.000000,,2013-05-23 15:11:00,
2013-05-23 05:21:00,61.0,61.0,-100.00,North,10,2.0,5.0,100,0.00,,,0.00,0.000000,,2013-05-23 15:21:00,
2013-05-23 05:43:00,60.0,60.0,-100.00,North,8,2.0,6.0,100,0.00,,,0.00,0.000000,,2013-05-23 15:43:00,
2013-05-23 05:53:00,60.0,60.0,-100.00,North,8,2.0,6.0,100,0.00,,,0.00,0.000000,,2013-05-23 15:53:00,
2013-05-23 06:03:00,60.0,60.0,-100.00,North,8,2.0,6.0,100,0.00,,,0.00,0.000000,,2013-05-23 16:03:00,
2013-05-23 06:12:00,60.0,60.0,-100.00,North,8,2.0,6.0,100,0.00,,,0.00,0.000000,,2013-05-23 16:12:00,
2013-05-23 06:22:00,60.0,60.0,-100.00,North,8,2.0,6.0,100,0.00,,,0.00,0.000000,,2013-05-23 16:22:00,
2013-05-23 06:23:00,58.0,-99.9,-100.00,North,3,2.0,7.0,-999,0.00,,,0.00,2.000000,,2013-05-23 16:23:00,
2013-05-23 06:43:00,58.0,-99.9,-100.00,North,3,2.0,7.0,-999,0.00,,,0.00,2.000000,,2013-05-23 16:43:00,
2013-05-23 06:53:00,58.0,-99.9,-100.00,North,3,2.0,7.0,-999,0.00,,,0.00,2.000000,,2013-05-23 16:53:00,
2013-05-23 07:03:00,58.0,-99.9,-100.00,North,3,2.0,7.0,-999,0.00,,,0.00,2.000000,,2013-05-23 17:03:00,
2013-05-23 07:12:00,58.0,-99.9,-100.00,North,3,2.0,7.0,-999,0.00,,,0.00,2.000000,,2013-05-23 17:12:00,
2013-05-23 07:43:00,59.0,57.0,-100.00,North,7,1.0,5.0,93,0.00,,,0.00,49.000000,,2013-05-23 17:43:00,
2013-05-23 07:52:00,59.0,57.0,-100.00,North,7,1.0,5.0,93,0.00,,,0.00,49.000000,,2013-05-23 17:52:00,
2013-05-23 08:01:00,59.0,57.0,-100.00,North,7,1.0,5.0,93,0.00,,,0.00,49.000000,,2013-05-23 18:01:00,
2013-05-23 08:11:00,59.0,57.0,-100.00,North,7,1.0,5.0,93,0.00,,,0.00,49.000000,,2013-05-23 18:11:00,
2013-05-23 08:21:00,59.0,57.0,-100.00,North,7,1.0,5.0,93,0.00,,,0.00,49.000000,,2013-05-23 18:21:00,
2013-05-23 08:42:00,66.0,56.0,-100.00,NNE,23,3.0,15.0,71,0.00,,,0.00,305.000000,,2013-05-23 18:42:00,
2013-05-23 08:52:00,66.0,56.0,-100.00,NNE,23,3.0,15.0,71,0.00,,,0.00,305.000000,,2013-05-23 18:52:00,
2013-05-23 09:01:00,66.0,56.0,-100.00,NNE,23,3.0,15.0,71,0.00,,,0.00,305.000000,,2013-05-23 19:01:00,
2013-05-23 09:11:00,66.0,56.0,-100.00,NNE,23,3.0,15.0,71,0.00,,,0.00,305.000000,,2013-05-23 19:11:00,
2013-05-23 09:21:00,66.0,56.0,-100.00,NNE,23,3.0,15.0,71,0.00,,,0.00,305.000000,,2013-05-23 19:21:00,
2013-05-23 09:42:00,69.0,59.0,-100.00,ESE,104,3.0,9.0,71,0.00,,,0.00,513.000000,,2013-05-23 19:42:00,
2013-05-23 09:52:00,69.0,59.0,-100.00,ESE,104,3.0,9.0,71,0.00,,,0.00,513.000000,,2013-05-23 19:52:00,
2013-05-23 10:02:00,69.0,59.0,-100.00,ESE,104,3.0,9.0,71,0.00,,,0.00,513.000000,,2013-05-23 20:02:00,
2013-05-23 10:11:00,69.0,59.0,-100.00,ESE,104,3.0,9.0,71,0.00,,,0.00,513.000000,,2013-05-23 20:11:00,
2013-05-23 10:21:00,69.0,59.0,-100.00,ESE,104,3.0,9.0,71,0.00,,,0.00,513.000000,,2013-05-23 20:21:00,
2013-05-23 10:42:00,69.0,58.0,-100.00,East,91,3.0,10.0,69,0.00,,,0.00,508.000000,,2013-05-23 20:42:00,
2013-05-23 10:52:00,69.0,58.0,-100.00,East,91,3.0,10.0,69,0.00,,,0.00,508.000000,,2013-05-23 20:52:00,
2013-05-23 11:01:00,69.0,58.0,-100.00,East,91,3.0,10.0,69,0.00,,,0.00,508.000000,,2013-05-23 21:01:00,
2013-05-23 11:11:00,69.0,58.0,-100.00,East,91,3.0,10.0,69,0.00,,,0.00,508.000000,,2013-05-23 21:11:00,
2013-05-23 11:21:00,69.0,58.0,-100.00,East,91,3.0,10.0,69,0.00,,,0.00,508.000000,,2013-05-23 21:21:00,
2013-05-23 11:43:00,71.0,62.0,-100.00,ENE,74,3.0,12.0,73,0.00,,,0.00,755.000000,,2013-05-23 21:43:00,
2013-05-23 11:53:00,71.0,62.0,-100.00,ENE,74,3.0,12.0,73,0.00,,,0.00,755.000000,,2013-05-23 21:53:00,
2013-05-23 12:02:00,71.0,62.0,-100.00,ENE,74,3.0,12.0,73,0.00,,,0.00,755.000000,,2013-05-23 22:02:00,
2013-05-23 12:12:00,71.0,62.0,-100.00,ENE,74,3.0,12.0,73,0.00,,,0.00,755.000000,,2013-05-23 22:12:00,
2013-05-23 12:22:00,71.0,62.0,-100.00,ENE,74,3.0,12.0,73,0.00,,,0.00,755.000000,,2013-05-23 22:22:00,
2013-05-23 12:43:00,69.0,-99.9,-100.00,East,83,3.0,13.0,-999,0.00,,,0.00,511.000000,,2013-05-23 22:43:00,
2013-05-23 12:52:00,69.0,-99.9,-100.00,East,83,3.0,13.0,-999,0.00,,,0.00,511.000000,,2013-05-23 22:52:00,
2013-05-23 13:02:00,69.0,-99.9,-100.00,East,83,3.0,13.0,-999,0.00,,,0.00,511.000000,,2013-05-23 23:02:00,
2013-05-23 13:12:00,69.0,-99.9,-100.00,East,83,3.0,13.0,-999,0.00,,,0.00,511.000000,,2013-05-23 23:12:00,
2013-05-23 13:22:00,69.0,-99.9,-100.00,East,83,3.0,13.0,-999,0.00,,,0.00,511.000000,,2013-05-23 23:22:00,
2013-05-23 13:42:00,63.0,-99.9,-100.00,East,84,2.0,12.0,-999,0.05,,,0.05,197.000000,,2013-05-23 23:42:00,
2013-05-23 13:52:00,63.0,-99.9,-100.00,East,84,2.0,12.0,-999,0.05,,,0.05,197.000000,,2013-05-23 23:52:00,
2013-05-23 14:01:00,63.0,-99.9,-100.00,East,84,2.0,12.0,-999,0.05,,,0.05,197.000000,,2013-05-24 00:01:00,
2013-05-23 14:12:00,63.0,-99.9,-100.00,East,84,2.0,12.0,-999,0.05,,,0.05,197.000000,,2013-05-24 00:12:00,
2013-05-23 14:22:00,63.0,-99.9,-100.00,East,84,2.0,12.0,-999,0.05,,,0.05,197.000000,,2013-05-24 00:22:00,
2013-05-23 14:42:00,65.0,-99.9,-100.00,East,87,3.0,10.0,-999,0.01,,,0.06,488.000000,,2013-05-24 00:42:00,
2013-05-23 14:52:00,65.0,-99.9,-100.00,East,87,3.0,10.0,-999,0.01,,,0.06,488.000000,,2013-05-24 00:52:00,
2013-05-23 15:01:00,65.0,-99.9,-100.00,East,87,3.0,10.0,-999,0.01,,,0.06,488.000000,,2013-05-24 01:01:00,
2013-05-23 15:12:00,65.0,-99.9,-100.00,East,87,3.0,10.0,-999,0.01,,,0.06,488.000000,,2013-05-24 01:12:00,
2013-05-23 15:22:00,65.0,-99.9,-100.00,East,87,3.0,10.0,-999,0.01,,,0.06,488.000000,,2013-05-24 01:22:00,
2013-05-23 15:42:00,67.0,-99.9,-100.00,ESE,107,3.0,10.0,-999,0.00,,,0.06,593.000000,,2013-05-24 01:42:00,
2013-05-23 15:52:00,67.0,-99.9,-100.00,ESE,107,3.0,10.0,-999,0.00,,,0.06,593.000000,,2013-05-24 01:52:00,
2013-05-23 16:02:00,67.0,-99.9,-100.00,ESE,107,3.0,10.0,-999,0.00,,,0.06,593.000000,,2013-05-24 02:02:00,
2013-05-23 16:12:00,67.0,-99.9,-100.00,ESE,107,3.0,10.0,-999,0.00,,,0.06,593.000000,,2013-05-24 02:12:00,
2013-05-23 16:22:00,67.0,-99.9,-100.00,ESE,107,3.0,10.0,-999,0.00,,,0.06,593.000000,,2013-05-24 02:22:00,
2013-05-23 16:42:00,65.0,-99.9,-100.00,ENE,67,3.0,12.0,-999,0.00,,,0.06,455.000000,,2013-05-24 02:42:00,
2013-05-23 16:52:00,65.0,-99.9,-100.00,ENE,67,3.0,12.0,-999,0.00,,,0.06,455.000000,,2013-05-24 02:52:00,
2013-05-23 17:02:00,65.0,-99.9,-100.00,ENE,67,3.0,12.0,-999,0.00,,,0.06,455.000000,,2013-05-24 03:02:00,
2013-05-23 17:11:00,65.0,-99.9,-100.00,ENE,67,3.0,12.0,-999,0.00,,,0.06,455.000000,,2013-05-24 03:11:00,
2013-05-23 17:22:00,65.0,-99.9,-100.00,ENE,67,3.0,12.0,-999,0.00,,,0.06,455.000000,,2013-05-24 03:22:00,
2013-05-23 17:23:00,65.0,-99.9,-100.00,NE,53,3.0,12.0,-999,0.00,,,0.06,317.000000,,2013-05-24 03:23:00,
2013-05-23 17:43:00,65.0,-99.9,-100.00,NE,53,3.0,12.0,-999,0.00,,,0.06,317.000000,,2013-05-24 03:43:00,
2013-05-23 17:53:00,65.0,-99.9,-100.00,NE,53,3.0,12.0,-999,0.00,,,0.06,317.000000,,2013-05-24 03:53:00,
2013-05-23 18:03:00,65.0,-99.9,-100.00,NE,53,3.0,12.0,-999,0.00,,,0.06,317.000000,,2013-05-24 04:03:00,
2013-05-23 18:13:00,65.0,-99.9,-100.00,NE,53,3.0,12.0,-999,0.00,,,0.06,317.000000,,2013-05-24 04:13:00,
2013-05-23 18:42:00,63.0,-99.9,-100.00,NE,36,2.0,9.0,-999,0.01,,,0.07,58.000000,,2013-05-24 04:42:00,
2013-05-23 18:53:00,63.0,-99.9,-100.00,NE,36,2.0,9.0,-999,0.01,,,0.07,58.000000,,2013-05-24 04:53:00,
2013-05-23 19:02:00,63.0,-99.9,-100.00,NE,36,2.0,9.0,-999,0.01,,,0.07,58.000000,,2013-05-24 05:02:00,
2013-05-23 19:12:00,63.0,-99.9,-100.00,NE,36,2.0,9.0,-999,0.01,,,0.07,58.000000,,2013-05-24 05:12:00,
2013-05-23 19:22:00,63.0,-99.9,-100.00,NE,36,2.0,9.0,-999,0.01,,,0.07,58.000000,,2013-05-24 05:22:00,
2013-05-23 19:42:00,63.0,-99.9,-100.00,North,354,2.0,11.0,-999,0.00,,,0.07,10.000000,,2013-05-24 05:42:00,
2013-05-23 19:52:00,63.0,-99.9,-100.00,North,354,2.0,11.0,-999,0.00,,,0.07,10.000000,,2013-05-24 05:52:00,
2013-05-23 20:02:00,63.0,-99.9,-100.00,North,354,2.0,11.0,-999,0.00,,,0.07,10.000000,,2013-05-24 06:02:00,
2013-05-23 20:12:00,63.0,-99.9,-100.00,North,354,2.0,11.0,-999,0.00,,,0.07,10.000000,,2013-05-24 06:12:00,
2013-05-23 20:22:00,63.0,-99.9,-100.00,North,354,2.0,11.0,-999,0.00,,,0.07,10.000000,,2013-05-24 06:22:00,
2013-05-23 20:42:00,63.0,-99.9,-100.00,North,359,1.0,5.0,-999,0.00,,,0.07,0.000000,,2013-05-24 06:42:00,
2013-05-23 20:52:00,63.0,-99.9,-100.00,North,359,1.0,5.0,-999,0.00,,,0.07,0.000000,,2013-05-24 06:52:00,
2013-05-23 21:02:00,63.0,-99.9,-100.00,North,359,1.0,5.0,-999,0.00,,,0.07,0.000000,,2013-05-24 07:02:00,
2013-05-23 21:11:00,63.0,-99.9,-100.00,North,359,1.0,5.0,-999,0.00,,,0.07,0.000000,,2013-05-24 07:11:00,
2013-05-23 21:22:00,63.0,-99.9,-100.00,North,359,1.0,5.0,-999,0.00,,,0.07,0.000000,,2013-05-24 07:22:00,
2013-05-23 21:42:00,62.0,-99.9,-100.00,NNE,15,1.0,6.0,-999,0.00,,,0.07,0.000000,,2013-05-24 07:42:00,
2013-05-23 21:52:00,62.0,-99.9,-100.00,NNE,15,1.0,6.0,-999,0.00,,,0.07,0.000000,,2013-05-24 07:52:00,
2013-05-23 22:02:00,62.0,-99.9,-100.00,NNE,15,1.0,6.0,-999,0.00,,,0.07,0.000000,,2013-05-24 08:02:00,
2013-05-23 22:11:00,62.0,-99.9,-100.00,NNE,15,1.0,6.0,-999,0.00,,,0.07,0.000000,,2013-05-24 08:11:00,
2013-05-23 22:22:00,62.0,-99.9,-100.00,NNE,15,1.0,6.0,-999,0.00,,,0.07,0.000000,,2013-05-24 08:22:00,
2013-05-23 22:42:00,62.0,-99.9,-100.00,North,6,2.0,8.0,-999,0.00,,,0.07,0.000000,,2013-05-24 08:42:00,
2013-05-23 22:52:00,62.0,-99.9,-100.00,North,6,2.0,8.0,-999,0.00,,,0.07,0.000000,,2013-05-24 08:52:00,
2013-05-23 23:02:00,62.0,-99.9,-100.00,North,6,2.0,8.0,-999,0.00,,,0.07,0.000000,,2013-05-24 09:02:00,
2013-05-23 23:11:00,62.0,-99.9,-100.00,North,6,2.0,8.0,-999,0.00,,,0.07,0.000000,,2013-05-24 09:11:00,
2013-05-23 23:22:00,62.0,-99.9,-100.00,North,6,2.0,8.0,-999,0.00,,,0.07,0.000000,,2013-05-24 09:22:00,
2013-05-23 23:23:00,62.0,-99.9,-100.00,North,351,2.0,7.0,-999,0.00,,,0.07,0.000000,,2013-05-24 09:23:00,
2013-05-23 23:43:00,62.0,-99.9,-100.00,North,351,2.0,7.0,-999,0.00,,,0.07,0.000000,,2013-05-24 09:43:00,
2013-05-23 23:53:00,62.0,-99.9,-100.00,North,351,2.0,7.0,-999,0.00,,,0.07,0.000000,,2013-05-24 09:53:00,